sensor_id;sensor_type;location;lat;lon;timestamp;P1;durP1;ratioP1;P2;durP2;ratioP2
18082;SDS011;9168;51.194;6.840;2023-03-14T00:01:31;9.85;;;1.98;;
18082;SDS011;9168;51.194;6.840;2023-03-14T00:03:58;10.02;;;1.95;;
18082;SDS011;9168;51.194;6.840;2023-03-14T00:06:25;11.13;;;1.55;;
18082;SDS011;9168;51.194;6.840;2023-03-14T00:08:52;9.95;;;1.80;;
18082;SDS011;9168;51.194;6.840;2023-03-14T00:11:20;9.45;;;1.75;;
18082;SDS011;9168;51.194;6.840;2023-03-14T00:13:48;9.50;;;1.60;;
18082;SDS011;9168;51.194;6.840;2023-03-14T00:16:16;9.25;;;2.20;;
18082;SDS011;9168;51.194;6.840;2023-03-14T00:18:44;11.90;;;1.80;;
18082;SDS011;9168;51.194;6.840;2023-03-14T00:21:12;12.73;;;2.20;;
18082;SDS011;9168;51.194;6.840;2023-03-14T00:23:40;15.63;;;1.67;;
18082;SDS011;9168;51.194;6.840;2023-03-14T00:26:08;6.95;;;1.77;;
18082;SDS011;9168;51.194;6.840;2023-03-14T00:28:36;6.35;;;1.77;;
18082;SDS011;9168;51.194;6.840;2023-03-14T00:31:03;11.55;;;2.05;;
18082;SDS011;9168;51.194;6.840;2023-03-14T00:33:32;7.93;;;1.58;;
18082;SDS011;9168;51.194;6.840;2023-03-14T00:36:00;15.27;;;2.20;;
18082;SDS011;9168;51.194;6.840;2023-03-14T00:38:29;10.10;;;1.95;;
18082;SDS011;9168;51.194;6.840;2023-03-14T00:40:57;17.48;;;2.25;;
18082;SDS011;9168;51.194;6.840;2023-03-14T00:43:24;10.13;;;2.13;;
18082;SDS011;9168;51.194;6.840;2023-03-14T00:45:51;14.27;;;2.63;;
18082;SDS011;9168;51.194;6.840;2023-03-14T00:48:19;8.85;;;1.50;;
18082;SDS011;9168;51.194;6.840;2023-03-14T00:50:47;11.20;;;1.58;;
18082;SDS011;9168;51.194;6.840;2023-03-14T00:53:15;10.60;;;1.77;;
18082;SDS011;9168;51.194;6.840;2023-03-14T00:55:43;7.88;;;1.55;;
18082;SDS011;9168;51.194;6.840;2023-03-14T00:58:11;5.07;;;1.15;;
18082;SDS011;9168;51.194;6.840;2023-03-14T01:00:39;9.43;;;1.52;;
18082;SDS011;9168;51.194;6.840;2023-03-14T01:03:07;16.10;;;1.95;;
18082;SDS011;9168;51.194;6.840;2023-03-14T01:05:35;8.63;;;1.50;;
18082;SDS011;9168;51.194;6.840;2023-03-14T01:08:03;10.38;;;1.60;;
18082;SDS011;9168;51.194;6.840;2023-03-14T01:10:33;10.00;;;1.42;;
18082;SDS011;9168;51.194;6.840;2023-03-14T01:13:00;11.80;;;1.95;;
18082;SDS011;9168;51.194;6.840;2023-03-14T01:15:27;10.05;;;1.80;;
18082;SDS011;9168;51.194;6.840;2023-03-14T01:17:54;9.27;;;1.92;;
18082;SDS011;9168;51.194;6.840;2023-03-14T01:20:21;13.63;;;2.55;;
18082;SDS011;9168;51.194;6.840;2023-03-14T01:22:47;14.15;;;2.20;;
18082;SDS011;9168;51.194;6.840;2023-03-14T01:25:15;13.95;;;2.08;;
18082;SDS011;9168;51.194;6.840;2023-03-14T01:27:44;8.65;;;1.52;;
18082;SDS011;9168;51.194;6.840;2023-03-14T01:30:11;9.73;;;1.63;;
18082;SDS011;9168;51.194;6.840;2023-03-14T01:32:39;12.50;;;2.25;;
18082;SDS011;9168;51.194;6.840;2023-03-14T01:35:06;9.65;;;1.73;;
18082;SDS011;9168;51.194;6.840;2023-03-14T01:37:34;9.07;;;2.15;;
18082;SDS011;9168;51.194;6.840;2023-03-14T01:40:01;7.22;;;2.15;;
18082;SDS011;9168;51.194;6.840;2023-03-14T01:42:30;12.90;;;2.60;;
18082;SDS011;9168;51.194;6.840;2023-03-14T01:44:59;15.60;;;3.25;;
18082;SDS011;9168;51.194;6.840;2023-03-14T01:47:27;14.57;;;3.20;;
18082;SDS011;9168;51.194;6.840;2023-03-14T01:49:55;17.70;;;3.20;;
18082;SDS011;9168;51.194;6.840;2023-03-14T01:52:26;12.70;;;2.95;;
18082;SDS011;9168;51.194;6.840;2023-03-14T01:54:58;10.55;;;2.30;;
18082;SDS011;9168;51.194;6.840;2023-03-14T01:57:30;15.00;;;2.28;;
18082;SDS011;9168;51.194;6.840;2023-03-14T02:00:05;15.15;;;2.38;;
18082;SDS011;9168;51.194;6.840;2023-03-14T02:02:36;13.55;;;2.13;;
18082;SDS011;9168;51.194;6.840;2023-03-14T02:05:05;12.50;;;2.00;;
18082;SDS011;9168;51.194;6.840;2023-03-14T02:07:33;9.52;;;1.80;;
18082;SDS011;9168;51.194;6.840;2023-03-14T02:10:06;13.55;;;2.10;;
18082;SDS011;9168;51.194;6.840;2023-03-14T02:12:35;15.05;;;2.67;;
18082;SDS011;9168;51.194;6.840;2023-03-14T02:15:05;15.13;;;1.70;;
18082;SDS011;9168;51.194;6.840;2023-03-14T02:17:32;13.35;;;1.88;;
18082;SDS011;9168;51.194;6.840;2023-03-14T02:20:10;17.17;;;2.30;;
18082;SDS011;9168;51.194;6.840;2023-03-14T02:22:49;12.48;;;1.60;;
18082;SDS011;9168;51.194;6.840;2023-03-14T02:25:17;11.13;;;1.90;;
18082;SDS011;9168;51.194;6.840;2023-03-14T02:27:52;10.30;;;2.03;;
18082;SDS011;9168;51.194;6.840;2023-03-14T02:30:20;11.57;;;2.33;;
18082;SDS011;9168;51.194;6.840;2023-03-14T02:32:49;12.20;;;2.63;;
18082;SDS011;9168;51.194;6.840;2023-03-14T02:35:21;16.23;;;2.38;;
18082;SDS011;9168;51.194;6.840;2023-03-14T02:37:51;14.73;;;2.42;;
18082;SDS011;9168;51.194;6.840;2023-03-14T02:40:21;9.38;;;2.00;;
18082;SDS011;9168;51.194;6.840;2023-03-14T02:42:48;9.18;;;1.67;;
18082;SDS011;9168;51.194;6.840;2023-03-14T02:45:36;9.93;;;2.08;;
18082;SDS011;9168;51.194;6.840;2023-03-14T02:48:06;10.98;;;2.00;;
18082;SDS011;9168;51.194;6.840;2023-03-14T02:50:36;10.80;;;1.90;;
18082;SDS011;9168;51.194;6.840;2023-03-14T02:53:04;12.75;;;2.00;;
18082;SDS011;9168;51.194;6.840;2023-03-14T02:55:31;16.73;;;2.65;;
18082;SDS011;9168;51.194;6.840;2023-03-14T02:57:58;9.55;;;2.53;;
18082;SDS011;9168;51.194;6.840;2023-03-14T03:00:25;11.68;;;2.75;;
18082;SDS011;9168;51.194;6.840;2023-03-14T03:02:53;14.73;;;2.83;;
18082;SDS011;9168;51.194;6.840;2023-03-14T03:05:20;17.92;;;3.72;;
18082;SDS011;9168;51.194;6.840;2023-03-14T03:07:47;15.20;;;3.38;;
18082;SDS011;9168;51.194;6.840;2023-03-14T03:10:14;17.10;;;3.05;;
18082;SDS011;9168;51.194;6.840;2023-03-14T03:12:41;12.75;;;3.30;;
18082;SDS011;9168;51.194;6.840;2023-03-14T03:15:09;18.38;;;3.53;;
18082;SDS011;9168;51.194;6.840;2023-03-14T03:17:36;16.33;;;3.72;;
18082;SDS011;9168;51.194;6.840;2023-03-14T03:20:05;17.00;;;3.10;;
18082;SDS011;9168;51.194;6.840;2023-03-14T03:22:34;9.20;;;1.90;;
18082;SDS011;9168;51.194;6.840;2023-03-14T03:25:01;5.57;;;1.38;;
18082;SDS011;9168;51.194;6.840;2023-03-14T03:27:29;12.60;;;1.83;;
18082;SDS011;9168;51.194;6.840;2023-03-14T03:29:56;13.73;;;1.90;;
18082;SDS011;9168;51.194;6.840;2023-03-14T03:32:23;11.40;;;1.80;;
18082;SDS011;9168;51.194;6.840;2023-03-14T03:34:50;11.88;;;2.00;;
18082;SDS011;9168;51.194;6.840;2023-03-14T03:37:18;9.85;;;1.42;;
18082;SDS011;9168;51.194;6.840;2023-03-14T03:39:45;15.43;;;2.28;;
18082;SDS011;9168;51.194;6.840;2023-03-14T03:42:12;12.90;;;2.75;;
18082;SDS011;9168;51.194;6.840;2023-03-14T03:44:39;11.18;;;2.10;;
18082;SDS011;9168;51.194;6.840;2023-03-14T03:47:06;21.73;;;2.47;;
18082;SDS011;9168;51.194;6.840;2023-03-14T03:49:33;15.93;;;2.47;;
18082;SDS011;9168;51.194;6.840;2023-03-14T03:52:00;14.55;;;2.40;;
18082;SDS011;9168;51.194;6.840;2023-03-14T03:54:28;21.75;;;2.90;;
18082;SDS011;9168;51.194;6.840;2023-03-14T03:56:55;14.80;;;3.53;;
18082;SDS011;9168;51.194;6.840;2023-03-14T03:59:22;13.13;;;2.85;;
18082;SDS011;9168;51.194;6.840;2023-03-14T04:01:49;20.42;;;2.75;;
18082;SDS011;9168;51.194;6.840;2023-03-14T04:04:16;18.05;;;2.38;;
18082;SDS011;9168;51.194;6.840;2023-03-14T04:06:43;17.02;;;2.55;;
18082;SDS011;9168;51.194;6.840;2023-03-14T04:09:10;16.77;;;2.67;;
18082;SDS011;9168;51.194;6.840;2023-03-14T04:11:38;19.65;;;3.25;;
18082;SDS011;9168;51.194;6.840;2023-03-14T04:14:06;19.13;;;2.92;;
18082;SDS011;9168;51.194;6.840;2023-03-14T04:16:33;17.00;;;3.17;;
18082;SDS011;9168;51.194;6.840;2023-03-14T04:19:00;12.63;;;2.65;;
18082;SDS011;9168;51.194;6.840;2023-03-14T04:21:27;15.98;;;2.33;;
18082;SDS011;9168;51.194;6.840;2023-03-14T04:23:54;11.48;;;2.22;;
18082;SDS011;9168;51.194;6.840;2023-03-14T04:26:21;11.80;;;1.83;;
18082;SDS011;9168;51.194;6.840;2023-03-14T04:28:49;8.38;;;2.00;;
18082;SDS011;9168;51.194;6.840;2023-03-14T04:31:17;12.10;;;1.90;;
18082;SDS011;9168;51.194;6.840;2023-03-14T04:33:45;13.25;;;2.00;;
18082;SDS011;9168;51.194;6.840;2023-03-14T04:36:12;8.85;;;2.25;;
18082;SDS011;9168;51.194;6.840;2023-03-14T04:38:39;15.32;;;2.38;;
18082;SDS011;9168;51.194;6.840;2023-03-14T04:41:06;10.32;;;2.05;;
18082;SDS011;9168;51.194;6.840;2023-03-14T04:43:33;14.77;;;2.72;;
18082;SDS011;9168;51.194;6.840;2023-03-14T04:46:01;20.30;;;3.63;;
18082;SDS011;9168;51.194;6.840;2023-03-14T04:48:29;11.23;;;2.85;;
18082;SDS011;9168;51.194;6.840;2023-03-14T04:50:56;12.32;;;2.65;;
18082;SDS011;9168;51.194;6.840;2023-03-14T04:53:22;11.75;;;2.08;;
18082;SDS011;9168;51.194;6.840;2023-03-14T04:55:50;8.02;;;2.22;;
18082;SDS011;9168;51.194;6.840;2023-03-14T04:58:17;9.32;;;1.50;;
18082;SDS011;9168;51.194;6.840;2023-03-14T05:00:44;11.65;;;1.80;;
18082;SDS011;9168;51.194;6.840;2023-03-14T05:03:13;7.80;;;1.63;;
18082;SDS011;9168;51.194;6.840;2023-03-14T05:05:41;10.45;;;1.45;;
18082;SDS011;9168;51.194;6.840;2023-03-14T05:08:08;9.55;;;1.70;;
18082;SDS011;9168;51.194;6.840;2023-03-14T05:10:35;9.23;;;1.55;;
18082;SDS011;9168;51.194;6.840;2023-03-14T05:13:03;8.35;;;1.52;;
18082;SDS011;9168;51.194;6.840;2023-03-14T05:15:29;10.63;;;1.38;;
18082;SDS011;9168;51.194;6.840;2023-03-14T05:17:56;11.75;;;1.92;;
18082;SDS011;9168;51.194;6.840;2023-03-14T05:20:24;8.63;;;1.65;;
18082;SDS011;9168;51.194;6.840;2023-03-14T05:22:51;7.85;;;1.48;;
18082;SDS011;9168;51.194;6.840;2023-03-14T05:25:18;4.28;;;1.20;;
18082;SDS011;9168;51.194;6.840;2023-03-14T05:27:45;4.93;;;0.90;;
18082;SDS011;9168;51.194;6.840;2023-03-14T05:30:12;5.90;;;1.10;;
18082;SDS011;9168;51.194;6.840;2023-03-14T05:32:39;6.40;;;1.00;;
18082;SDS011;9168;51.194;6.840;2023-03-14T05:35:06;6.35;;;1.40;;
18082;SDS011;9168;51.194;6.840;2023-03-14T05:37:35;5.00;;;1.05;;
18082;SDS011;9168;51.194;6.840;2023-03-14T05:40:03;4.82;;;1.27;;
18082;SDS011;9168;51.194;6.840;2023-03-14T05:42:31;4.93;;;0.80;;
18082;SDS011;9168;51.194;6.840;2023-03-14T05:44:58;5.65;;;0.90;;
18082;SDS011;9168;51.194;6.840;2023-03-14T05:47:25;4.20;;;0.80;;
18082;SDS011;9168;51.194;6.840;2023-03-14T05:49:52;4.03;;;0.63;;
18082;SDS011;9168;51.194;6.840;2023-03-14T05:52:18;2.63;;;0.88;;
18082;SDS011;9168;51.194;6.840;2023-03-14T05:54:47;1.73;;;0.45;;
18082;SDS011;9168;51.194;6.840;2023-03-14T05:57:13;6.70;;;1.58;;
18082;SDS011;9168;51.194;6.840;2023-03-14T05:59:40;2.28;;;0.50;;
18082;SDS011;9168;51.194;6.840;2023-03-14T06:02:07;3.15;;;0.73;;
18082;SDS011;9168;51.194;6.840;2023-03-14T06:04:34;1.67;;;0.60;;
18082;SDS011;9168;51.194;6.840;2023-03-14T06:07:01;2.60;;;0.75;;
18082;SDS011;9168;51.194;6.840;2023-03-14T06:09:28;3.92;;;0.68;;
18082;SDS011;9168;51.194;6.840;2023-03-14T06:11:56;2.33;;;0.60;;
18082;SDS011;9168;51.194;6.840;2023-03-14T06:14:23;2.30;;;0.65;;
18082;SDS011;9168;51.194;6.840;2023-03-14T06:16:50;5.45;;;0.60;;
18082;SDS011;9168;51.194;6.840;2023-03-14T06:19:17;2.20;;;0.52;;
18082;SDS011;9168;51.194;6.840;2023-03-14T06:21:44;1.92;;;0.55;;
18082;SDS011;9168;51.194;6.840;2023-03-14T06:24:11;0.70;;;0.45;;
18082;SDS011;9168;51.194;6.840;2023-03-14T06:26:38;0.73;;;0.45;;
18082;SDS011;9168;51.194;6.840;2023-03-14T06:29:06;5.60;;;0.68;;
18082;SDS011;9168;51.194;6.840;2023-03-14T06:31:33;1.38;;;0.47;;
18082;SDS011;9168;51.194;6.840;2023-03-14T06:34:01;1.50;;;0.68;;
18082;SDS011;9168;51.194;6.840;2023-03-14T06:36:28;2.13;;;0.52;;
18082;SDS011;9168;51.194;6.840;2023-03-14T06:38:54;3.85;;;0.50;;
18082;SDS011;9168;51.194;6.840;2023-03-14T06:41:23;1.58;;;0.52;;
18082;SDS011;9168;51.194;6.840;2023-03-14T06:43:52;0.20;;;0.20;;
18082;SDS011;9168;51.194;6.840;2023-03-14T06:46:21;2.35;;;0.40;;
18082;SDS011;9168;51.194;6.840;2023-03-14T06:48:47;2.53;;;0.50;;
18082;SDS011;9168;51.194;6.840;2023-03-14T06:51:14;3.65;;;0.73;;
18082;SDS011;9168;51.194;6.840;2023-03-14T06:53:41;0.82;;;0.52;;
18082;SDS011;9168;51.194;6.840;2023-03-14T06:56:08;1.60;;;0.52;;
18082;SDS011;9168;51.194;6.840;2023-03-14T06:58:35;1.50;;;0.57;;
18082;SDS011;9168;51.194;6.840;2023-03-14T07:01:02;1.52;;;0.60;;
18082;SDS011;9168;51.194;6.840;2023-03-14T07:03:31;0.88;;;0.40;;
18082;SDS011;9168;51.194;6.840;2023-03-14T07:05:58;1.17;;;0.40;;
18082;SDS011;9168;51.194;6.840;2023-03-14T07:08:25;1.35;;;0.60;;
18082;SDS011;9168;51.194;6.840;2023-03-14T07:10:51;1.15;;;0.50;;
18082;SDS011;9168;51.194;6.840;2023-03-14T07:13:18;1.48;;;0.52;;
18082;SDS011;9168;51.194;6.840;2023-03-14T07:15:48;1.40;;;0.60;;
18082;SDS011;9168;51.194;6.840;2023-03-14T07:18:15;2.38;;;0.60;;
18082;SDS011;9168;51.194;6.840;2023-03-14T07:20:43;1.15;;;0.65;;
18082;SDS011;9168;51.194;6.840;2023-03-14T07:23:11;2.92;;;0.85;;
18082;SDS011;9168;51.194;6.840;2023-03-14T07:25:38;1.55;;;0.68;;
18082;SDS011;9168;51.194;6.840;2023-03-14T07:28:05;2.83;;;0.85;;
18082;SDS011;9168;51.194;6.840;2023-03-14T07:30:31;2.08;;;0.95;;
18082;SDS011;9168;51.194;6.840;2023-03-14T07:32:58;2.03;;;0.88;;
18082;SDS011;9168;51.194;6.840;2023-03-14T07:35:25;3.30;;;1.00;;
18082;SDS011;9168;51.194;6.840;2023-03-14T07:37:53;1.65;;;0.80;;
18082;SDS011;9168;51.194;6.840;2023-03-14T07:40:20;2.95;;;1.08;;
18082;SDS011;9168;51.194;6.840;2023-03-14T07:42:47;3.05;;;0.98;;
18082;SDS011;9168;51.194;6.840;2023-03-14T07:45:14;4.93;;;1.00;;
18082;SDS011;9168;51.194;6.840;2023-03-14T07:47:41;1.90;;;0.80;;
18082;SDS011;9168;51.194;6.840;2023-03-14T07:50:09;2.92;;;0.88;;
18082;SDS011;9168;51.194;6.840;2023-03-14T07:52:36;2.20;;;0.60;;
18082;SDS011;9168;51.194;6.840;2023-03-14T07:55:05;2.10;;;0.60;;
18082;SDS011;9168;51.194;6.840;2023-03-14T07:57:32;3.13;;;0.70;;
18082;SDS011;9168;51.194;6.840;2023-03-14T07:59:59;1.05;;;0.40;;
18082;SDS011;9168;51.194;6.840;2023-03-14T08:02:26;5.50;;;0.80;;
18082;SDS011;9168;51.194;6.840;2023-03-14T08:04:53;1.42;;;0.40;;
18082;SDS011;9168;51.194;6.840;2023-03-14T08:07:20;1.30;;;0.50;;
18082;SDS011;9168;51.194;6.840;2023-03-14T08:09:47;1.88;;;0.60;;
18082;SDS011;9168;51.194;6.840;2023-03-14T08:12:15;1.20;;;0.50;;
18082;SDS011;9168;51.194;6.840;2023-03-14T08:14:42;1.58;;;0.90;;
18082;SDS011;9168;51.194;6.840;2023-03-14T08:17:09;3.47;;;0.70;;
18082;SDS011;9168;51.194;6.840;2023-03-14T08:19:35;0.98;;;0.50;;
18082;SDS011;9168;51.194;6.840;2023-03-14T08:22:02;1.20;;;0.60;;
18082;SDS011;9168;51.194;6.840;2023-03-14T08:24:30;1.95;;;0.88;;
18082;SDS011;9168;51.194;6.840;2023-03-14T08:26:57;1.15;;;0.70;;
18082;SDS011;9168;51.194;6.840;2023-03-14T08:29:25;2.35;;;0.80;;
18082;SDS011;9168;51.194;6.840;2023-03-14T08:31:52;3.60;;;0.73;;
18082;SDS011;9168;51.194;6.840;2023-03-14T08:34:19;1.35;;;0.55;;
18082;SDS011;9168;51.194;6.840;2023-03-14T08:36:46;2.22;;;0.80;;
18082;SDS011;9168;51.194;6.840;2023-03-14T08:39:13;2.63;;;1.00;;
18082;SDS011;9168;51.194;6.840;2023-03-14T08:41:40;2.47;;;0.90;;
18082;SDS011;9168;51.194;6.840;2023-03-14T08:44:09;2.70;;;0.90;;
18082;SDS011;9168;51.194;6.840;2023-03-14T08:46:38;4.93;;;1.60;;
18082;SDS011;9168;51.194;6.840;2023-03-14T08:49:05;8.25;;;3.20;;
18082;SDS011;9168;51.194;6.840;2023-03-14T08:51:32;9.20;;;4.35;;
18082;SDS011;9168;51.194;6.840;2023-03-14T08:53:59;11.00;;;4.05;;
18082;SDS011;9168;51.194;6.840;2023-03-14T08:56:26;7.65;;;3.80;;
18082;SDS011;9168;51.194;6.840;2023-03-14T08:58:53;7.85;;;2.38;;
18082;SDS011;9168;51.194;6.840;2023-03-14T09:01:20;3.15;;;1.50;;
18082;SDS011;9168;51.194;6.840;2023-03-14T09:03:50;4.57;;;1.40;;
18082;SDS011;9168;51.194;6.840;2023-03-14T09:06:17;4.85;;;1.42;;
18082;SDS011;9168;51.194;6.840;2023-03-14T09:08:44;6.95;;;1.20;;
18082;SDS011;9168;51.194;6.840;2023-03-14T09:11:11;7.57;;;1.20;;
18082;SDS011;9168;51.194;6.840;2023-03-14T09:13:38;6.38;;;1.38;;
18082;SDS011;9168;51.194;6.840;2023-03-14T09:16:06;4.03;;;1.10;;
18082;SDS011;9168;51.194;6.840;2023-03-14T09:18:34;1.90;;;0.80;;
18082;SDS011;9168;51.194;6.840;2023-03-14T09:21:03;2.05;;;0.88;;
18082;SDS011;9168;51.194;6.840;2023-03-14T09:23:30;5.90;;;1.00;;
18082;SDS011;9168;51.194;6.840;2023-03-14T09:25:58;3.95;;;0.95;;
18082;SDS011;9168;51.194;6.840;2023-03-14T09:28:25;4.57;;;0.88;;
18082;SDS011;9168;51.194;6.840;2023-03-14T09:30:52;4.80;;;0.80;;
18082;SDS011;9168;51.194;6.840;2023-03-14T09:33:19;1.70;;;0.50;;
18082;SDS011;9168;51.194;6.840;2023-03-14T09:35:46;1.35;;;0.40;;
18082;SDS011;9168;51.194;6.840;2023-03-14T09:38:15;3.55;;;0.40;;
18082;SDS011;9168;51.194;6.840;2023-03-14T09:40:42;0.65;;;0.40;;
18082;SDS011;9168;51.194;6.840;2023-03-14T09:43:09;0.60;;;0.45;;
18082;SDS011;9168;51.194;6.840;2023-03-14T09:45:39;1.13;;;0.40;;
18082;SDS011;9168;51.194;6.840;2023-03-14T09:48:10;2.53;;;0.65;;
18082;SDS011;9168;51.194;6.840;2023-03-14T09:50:42;0.90;;;0.47;;
18082;SDS011;9168;51.194;6.840;2023-03-14T09:53:11;1.52;;;0.60;;
18082;SDS011;9168;51.194;6.840;2023-03-14T09:55:43;1.40;;;0.60;;
18082;SDS011;9168;51.194;6.840;2023-03-14T09:58:13;1.48;;;0.68;;
18082;SDS011;9168;51.194;6.840;2023-03-14T10:00:42;1.02;;;0.70;;
18082;SDS011;9168;51.194;6.840;2023-03-14T10:05:57;2.72;;;0.80;;
18082;SDS011;9168;51.194;6.840;2023-03-14T10:08:24;1.00;;;0.88;;
18082;SDS011;9168;51.194;6.840;2023-03-14T10:10:53;3.22;;;1.00;;
18082;SDS011;9168;51.194;6.840;2023-03-14T10:13:20;2.25;;;0.93;;
18082;SDS011;9168;51.194;6.840;2023-03-14T10:15:51;2.97;;;1.00;;
18082;SDS011;9168;51.194;6.840;2023-03-14T10:18:20;0.88;;;0.82;;
18082;SDS011;9168;51.194;6.840;2023-03-14T10:20:49;3.20;;;1.08;;
18082;SDS011;9168;51.194;6.840;2023-03-14T10:23:28;2.42;;;0.82;;
18082;SDS011;9168;51.194;6.840;2023-03-14T10:26:04;2.42;;;0.75;;
18082;SDS011;9168;51.194;6.840;2023-03-14T10:28:34;5.43;;;1.30;;
18082;SDS011;9168;51.194;6.840;2023-03-14T10:31:05;3.03;;;1.00;;
18082;SDS011;9168;51.194;6.840;2023-03-14T10:33:33;3.00;;;0.95;;
18082;SDS011;9168;51.194;6.840;2023-03-14T10:36:02;1.95;;;0.90;;
18082;SDS011;9168;51.194;6.840;2023-03-14T10:38:32;2.60;;;1.45;;
18082;SDS011;9168;51.194;6.840;2023-03-14T10:41:00;3.25;;;0.98;;
18082;SDS011;9168;51.194;6.840;2023-03-14T10:43:30;3.78;;;1.10;;
18082;SDS011;9168;51.194;6.840;2023-03-14T10:46:00;2.75;;;1.17;;
18082;SDS011;9168;51.194;6.840;2023-03-14T10:48:32;2.38;;;1.13;;
18082;SDS011;9168;51.194;6.840;2023-03-14T10:51:04;3.60;;;0.90;;
18082;SDS011;9168;51.194;6.840;2023-03-14T10:53:34;3.85;;;1.02;;
18082;SDS011;9168;51.194;6.840;2023-03-14T10:56:07;1.00;;;0.90;;
18082;SDS011;9168;51.194;6.840;2023-03-14T10:58:39;5.00;;;1.15;;
18082;SDS011;9168;51.194;6.840;2023-03-14T11:01:22;3.92;;;1.63;;
18082;SDS011;9168;51.194;6.840;2023-03-14T11:03:59;4.57;;;2.05;;
18082;SDS011;9168;51.194;6.840;2023-03-14T11:06:32;7.43;;;1.60;;
18082;SDS011;9168;51.194;6.840;2023-03-14T11:09:10;5.45;;;1.63;;
18082;SDS011;9168;51.194;6.840;2023-03-14T11:11:45;8.27;;;1.88;;
18082;SDS011;9168;51.194;6.840;2023-03-14T11:14:18;2.58;;;1.00;;
18082;SDS011;9168;51.194;6.840;2023-03-14T11:16:53;5.78;;;1.10;;
18082;SDS011;9168;51.194;6.840;2023-03-14T11:19:35;5.82;;;1.33;;
18082;SDS011;9168;51.194;6.840;2023-03-14T11:22:23;4.15;;;1.00;;
18082;SDS011;9168;51.194;6.840;2023-03-14T11:25:03;6.20;;;1.20;;
18082;SDS011;9168;51.194;6.840;2023-03-14T11:27:42;4.93;;;1.25;;
18082;SDS011;9168;51.194;6.840;2023-03-14T11:30:17;7.28;;;2.10;;
18082;SDS011;9168;51.194;6.840;2023-03-14T11:32:48;4.00;;;1.70;;
18082;SDS011;9168;51.194;6.840;2023-03-14T11:35:23;8.32;;;2.30;;
18082;SDS011;9168;51.194;6.840;2023-03-14T11:37:54;7.85;;;2.20;;
18082;SDS011;9168;51.194;6.840;2023-03-14T11:40:26;10.35;;;2.40;;
18082;SDS011;9168;51.194;6.840;2023-03-14T11:42:55;8.98;;;2.35;;
18082;SDS011;9168;51.194;6.840;2023-03-14T11:45:29;5.40;;;2.17;;
18082;SDS011;9168;51.194;6.840;2023-03-14T11:48:07;6.18;;;1.83;;
18082;SDS011;9168;51.194;6.840;2023-03-14T11:50:42;4.63;;;1.63;;
18082;SDS011;9168;51.194;6.840;2023-03-14T11:53:11;5.65;;;1.85;;
18082;SDS011;9168;51.194;6.840;2023-03-14T11:55:42;6.38;;;1.90;;
18082;SDS011;9168;51.194;6.840;2023-03-14T11:58:12;6.50;;;1.70;;
18082;SDS011;9168;51.194;6.840;2023-03-14T12:00:44;7.45;;;1.88;;
18082;SDS011;9168;51.194;6.840;2023-03-14T12:03:14;6.00;;;1.70;;
18082;SDS011;9168;51.194;6.840;2023-03-14T12:05:46;10.07;;;1.67;;
18082;SDS011;9168;51.194;6.840;2023-03-14T12:08:45;4.80;;;1.50;;
18082;SDS011;9168;51.194;6.840;2023-03-14T12:11:19;6.22;;;2.15;;
18082;SDS011;9168;51.194;6.840;2023-03-14T12:13:52;9.30;;;1.40;;
18082;SDS011;9168;51.194;6.840;2023-03-14T12:19:21;7.03;;;1.40;;
18082;SDS011;9168;51.194;6.840;2023-03-14T12:22:01;9.98;;;1.42;;
18082;SDS011;9168;51.194;6.840;2023-03-14T12:24:47;5.60;;;1.02;;
18082;SDS011;9168;51.194;6.840;2023-03-14T12:30:17;6.13;;;1.55;;
18082;SDS011;9168;51.194;6.840;2023-03-14T12:33:12;8.40;;;1.70;;
18082;SDS011;9168;51.194;6.840;2023-03-14T12:36:02;6.38;;;1.38;;
18082;SDS011;9168;51.194;6.840;2023-03-14T12:38:44;5.30;;;1.60;;
18082;SDS011;9168;51.194;6.840;2023-03-14T12:41:19;10.20;;;1.50;;
18082;SDS011;9168;51.194;6.840;2023-03-14T12:43:49;12.20;;;1.77;;
18082;SDS011;9168;51.194;6.840;2023-03-14T12:46:20;8.05;;;1.58;;
18082;SDS011;9168;51.194;6.840;2023-03-14T12:48:53;8.40;;;1.70;;
18082;SDS011;9168;51.194;6.840;2023-03-14T12:51:27;12.95;;;2.22;;
18082;SDS011;9168;51.194;6.840;2023-03-14T12:54:02;10.05;;;1.83;;
18082;SDS011;9168;51.194;6.840;2023-03-14T12:57:02;13.57;;;2.05;;
18082;SDS011;9168;51.194;6.840;2023-03-14T12:59:44;12.75;;;1.85;;
18082;SDS011;9168;51.194;6.840;2023-03-14T13:02:23;11.02;;;2.10;;
18082;SDS011;9168;51.194;6.840;2023-03-14T13:04:59;9.55;;;1.95;;
18082;SDS011;9168;51.194;6.840;2023-03-14T13:07:31;11.07;;;2.22;;
18082;SDS011;9168;51.194;6.840;2023-03-14T13:10:00;6.28;;;1.70;;
18082;SDS011;9168;51.194;6.840;2023-03-14T13:12:34;7.07;;;2.10;;
18082;SDS011;9168;51.194;6.840;2023-03-14T13:15:13;10.63;;;1.17;;
18082;SDS011;9168;51.194;6.840;2023-03-14T13:17:45;10.05;;;1.70;;
18082;SDS011;9168;51.194;6.840;2023-03-14T13:20:16;11.73;;;1.80;;
18082;SDS011;9168;51.194;6.840;2023-03-14T13:22:49;9.77;;;1.67;;
18082;SDS011;9168;51.194;6.840;2023-03-14T13:25:16;14.50;;;2.42;;
18082;SDS011;9168;51.194;6.840;2023-03-14T13:27:46;14.00;;;2.42;;
18082;SDS011;9168;51.194;6.840;2023-03-14T13:30:15;14.52;;;2.78;;
18082;SDS011;9168;51.194;6.840;2023-03-14T13:32:45;15.75;;;2.85;;
18082;SDS011;9168;51.194;6.840;2023-03-14T13:35:16;29.92;;;3.97;;
18082;SDS011;9168;51.194;6.840;2023-03-14T13:37:45;15.38;;;3.00;;
18082;SDS011;9168;51.194;6.840;2023-03-14T13:40:19;21.83;;;4.00;;
18082;SDS011;9168;51.194;6.840;2023-03-14T13:42:50;21.30;;;3.80;;
18082;SDS011;9168;51.194;6.840;2023-03-14T13:45:28;25.45;;;3.60;;
18082;SDS011;9168;51.194;6.840;2023-03-14T13:47:55;20.92;;;3.67;;
18082;SDS011;9168;51.194;6.840;2023-03-14T13:50:23;27.67;;;3.22;;
18082;SDS011;9168;51.194;6.840;2023-03-14T13:52:54;16.08;;;2.88;;
18082;SDS011;9168;51.194;6.840;2023-03-14T13:55:22;17.73;;;3.15;;
18082;SDS011;9168;51.194;6.840;2023-03-14T13:57:50;22.58;;;2.92;;
18082;SDS011;9168;51.194;6.840;2023-03-14T14:00:20;22.40;;;3.85;;
18082;SDS011;9168;51.194;6.840;2023-03-14T14:02:51;16.67;;;3.05;;
18082;SDS011;9168;51.194;6.840;2023-03-14T14:05:19;23.52;;;3.47;;
18082;SDS011;9168;51.194;6.840;2023-03-14T14:07:48;20.90;;;3.97;;
18082;SDS011;9168;51.194;6.840;2023-03-14T14:10:16;20.33;;;3.30;;
18082;SDS011;9168;51.194;6.840;2023-03-14T14:12:43;23.25;;;3.55;;
18082;SDS011;9168;51.194;6.840;2023-03-14T14:15:16;28.23;;;4.32;;
18082;SDS011;9168;51.194;6.840;2023-03-14T14:17:48;27.08;;;4.20;;
18082;SDS011;9168;51.194;6.840;2023-03-14T14:20:20;25.73;;;4.10;;
18082;SDS011;9168;51.194;6.840;2023-03-14T14:22:58;22.50;;;3.25;;
18082;SDS011;9168;51.194;6.840;2023-03-14T14:25:27;17.92;;;3.42;;
18082;SDS011;9168;51.194;6.840;2023-03-14T14:27:55;21.15;;;3.40;;
18082;SDS011;9168;51.194;6.840;2023-03-14T14:30:27;20.98;;;3.85;;
18082;SDS011;9168;51.194;6.840;2023-03-14T14:33:09;27.10;;;3.92;;
18082;SDS011;9168;51.194;6.840;2023-03-14T14:35:42;26.02;;;4.07;;
18082;SDS011;9168;51.194;6.840;2023-03-14T14:38:19;25.17;;;4.13;;
18082;SDS011;9168;51.194;6.840;2023-03-14T14:40:48;28.15;;;3.40;;
18082;SDS011;9168;51.194;6.840;2023-03-14T14:43:18;28.15;;;4.20;;
18082;SDS011;9168;51.194;6.840;2023-03-14T14:45:48;25.63;;;3.53;;
18082;SDS011;9168;51.194;6.840;2023-03-14T14:48:18;27.65;;;4.10;;
18082;SDS011;9168;51.194;6.840;2023-03-14T14:50:52;25.98;;;3.72;;
18082;SDS011;9168;51.194;6.840;2023-03-14T14:53:26;27.92;;;3.53;;
18082;SDS011;9168;51.194;6.840;2023-03-14T14:55:55;31.50;;;3.75;;
18082;SDS011;9168;51.194;6.840;2023-03-14T14:58:25;20.48;;;3.08;;
18082;SDS011;9168;51.194;6.840;2023-03-14T15:00:54;15.13;;;2.60;;
18082;SDS011;9168;51.194;6.840;2023-03-14T15:03:25;18.63;;;2.50;;
18082;SDS011;9168;51.194;6.840;2023-03-14T15:05:54;14.25;;;2.85;;
18082;SDS011;9168;51.194;6.840;2023-03-14T15:08:21;13.18;;;2.38;;
18082;SDS011;9168;51.194;6.840;2023-03-14T15:10:52;20.10;;;2.13;;
18082;SDS011;9168;51.194;6.840;2023-03-14T15:13:19;12.30;;;1.92;;
18082;SDS011;9168;51.194;6.840;2023-03-14T15:15:46;18.20;;;2.45;;
18082;SDS011;9168;51.194;6.840;2023-03-14T15:18:14;16.33;;;2.55;;